sensor_id;sensor_type;location;lat;lon;timestamp;pressure;altitude;pressure_sealevel;temperature;humidity
75617;BME280;64200;55.426;37.758;2023-08-24T00:03:24;98795.13;;;14.83;74.15
75617;BME280;64200;55.426;37.758;2023-08-24T00:08:25;98800.47;;;14.86;74.46
75617;BME280;64200;55.426;37.758;2023-08-24T00:13:26;98802.00;;;14.82;74.32
75617;BME280;64200;55.426;37.758;2023-08-24T00:18:26;98813.50;;;14.84;74.48
75617;BME280;64200;55.426;37.758;2023-08-24T00:23:27;98817.34;;;14.86;74.20
75617;BME280;64200;55.426;37.758;2023-08-24T00:28:28;98808.63;;;14.90;74.38
75617;BME280;64200;55.426;37.758;2023-08-24T00:33:29;98820.56;;;15.07;74.41
75617;BME280;64200;55.426;37.758;2023-08-24T00:38:30;98815.16;;;15.15;74.28
75617;BME280;64200;55.426;37.758;2023-08-24T00:43:30;98806.19;;;15.22;74.51
75617;BME280;64200;55.426;37.758;2023-08-24T00:48:31;98816.88;;;15.30;74.63
75617;BME280;64200;55.426;37.758;2023-08-24T00:53:32;98823.47;;;15.32;74.09
75617;BME280;64200;55.426;37.758;2023-08-24T00:58:34;98820.75;;;15.21;74.43
75617;BME280;64200;55.426;37.758;2023-08-24T01:03:34;98830.41;;;15.25;74.68
75617;BME280;64200;55.426;37.758;2023-08-24T01:08:35;98833.94;;;15.37;74.65
75617;BME280;64200;55.426;37.758;2023-08-24T01:18:57;98838.19;;;15.50;74.27
75617;BME280;64200;55.426;37.758;2023-08-24T01:24:17;98837.94;;;15.53;74.29
75617;BME280;64200;55.426;37.758;2023-08-24T01:29:19;98831.00;;;15.54;74.33
75617;BME280;64200;55.426;37.758;2023-08-24T01:34:20;98837.94;;;15.53;74.42
75617;BME280;64200;55.426;37.758;2023-08-24T01:39:28;98830.31;;;15.42;74.64
75617;BME280;64200;55.426;37.758;2023-08-24T01:44:34;98832.13;;;15.40;74.68
75617;BME280;64200;55.426;37.758;2023-08-24T01:49:36;98831.41;;;15.34;75.35
75617;BME280;64200;55.426;37.758;2023-08-24T01:54:36;98834.41;;;15.47;75.12
75617;BME280;64200;55.426;37.758;2023-08-24T01:59:37;98821.34;;;15.50;75.03
75617;BME280;64200;55.426;37.758;2023-08-24T02:04:38;98825.38;;;15.54;74.88
75617;BME280;64200;55.426;37.758;2023-08-24T02:09:38;98825.19;;;15.46;75.38
75617;BME280;64200;55.426;37.758;2023-08-24T02:14:38;98826.94;;;15.50;75.31
75617;BME280;64200;55.426;37.758;2023-08-24T02:19:40;98825.97;;;15.47;75.05
75617;BME280;64200;55.426;37.758;2023-08-24T02:24:41;98826.94;;;15.50;75.22
75617;BME280;64200;55.426;37.758;2023-08-24T02:29:42;98837.22;;;15.47;75.17
75617;BME280;64200;55.426;37.758;2023-08-24T02:34:42;98839.53;;;15.43;75.45
75617;BME280;64200;55.426;37.758;2023-08-24T02:39:43;98836.94;;;15.45;75.51
75617;BME280;64200;55.426;37.758;2023-08-24T02:44:44;98844.13;;;15.40;75.60
75617;BME280;64200;55.426;37.758;2023-08-24T02:49:44;98834.91;;;15.45;75.22
75617;BME280;64200;55.426;37.758;2023-08-24T02:54:45;98833.38;;;15.44;75.13
75617;BME280;64200;55.426;37.758;2023-08-24T02:59:45;98834.59;;;15.55;75.18
75617;BME280;64200;55.426;37.758;2023-08-24T03:04:46;98845.03;;;15.60;75.26
75617;BME280;64200;55.426;37.758;2023-08-24T03:09:46;98849.88;;;15.65;75.06
75617;BME280;64200;55.426;37.758;2023-08-24T03:14:47;98848.31;;;15.70;75.14
75617;BME280;64200;55.426;37.758;2023-08-24T03:19:47;98851.63;;;15.68;75.02
75617;BME280;64200;55.426;37.758;2023-08-24T03:24:48;98845.47;;;15.75;75.12
75617;BME280;64200;55.426;37.758;2023-08-24T03:29:48;98844.97;;;15.71;74.84
75617;BME280;64200;55.426;37.758;2023-08-24T03:34:49;98861.03;;;15.76;74.84
75617;BME280;64200;55.426;37.758;2023-08-24T03:39:49;98858.22;;;15.82;75.00
75617;BME280;64200;55.426;37.758;2023-08-24T03:44:50;98861.50;;;15.86;74.64
75617;BME280;64200;55.426;37.758;2023-08-24T03:49:50;98855.88;;;15.86;74.87
75617;BME280;64200;55.426;37.758;2023-08-24T03:54:51;98863.50;;;15.91;74.66
75617;BME280;64200;55.426;37.758;2023-08-24T03:59:51;98864.50;;;15.94;74.73
75617;BME280;64200;55.426;37.758;2023-08-24T04:04:52;98860.13;;;15.98;74.34
75617;BME280;64200;55.426;37.758;2023-08-24T04:09:52;98876.41;;;16.11;74.39
75617;BME280;64200;55.426;37.758;2023-08-24T04:14:53;98871.50;;;16.18;74.12
75617;BME280;64200;55.426;37.758;2023-08-24T04:19:54;98882.00;;;16.17;74.26
75617;BME280;64200;55.426;37.758;2023-08-24T04:24:54;98879.06;;;16.28;74.40
75617;BME280;64200;55.426;37.758;2023-08-24T04:29:55;98877.69;;;16.41;73.77
75617;BME280;64200;55.426;37.758;2023-08-24T04:34:55;98875.59;;;16.47;73.55
75617;BME280;64200;55.426;37.758;2023-08-24T04:39:56;98887.72;;;16.61;73.60
75617;BME280;64200;55.426;37.758;2023-08-24T04:44:56;98879.41;;;16.74;73.22
75617;BME280;64200;55.426;37.758;2023-08-24T04:49:57;98878.22;;;16.64;72.78
75617;BME280;64200;55.426;37.758;2023-08-24T04:54:57;98880.75;;;16.67;72.87
75617;BME280;64200;55.426;37.758;2023-08-24T04:59:58;98879.00;;;16.64;72.79
75617;BME280;64200;55.426;37.758;2023-08-24T05:04:58;98878.47;;;16.66;72.94
75617;BME280;64200;55.426;37.758;2023-08-24T05:09:59;98890.56;;;16.85;72.96
75617;BME280;64200;55.426;37.758;2023-08-24T05:14:59;98876.66;;;16.93;72.37
75617;BME280;64200;55.426;37.758;2023-08-24T05:20:00;98885.75;;;17.05;72.16
75617;BME280;64200;55.426;37.758;2023-08-24T05:25:02;98873.91;;;16.88;72.17
75617;BME280;64200;55.426;37.758;2023-08-24T05:30:03;98876.84;;;16.76;72.26
75617;BME280;64200;55.426;37.758;2023-08-24T05:35:23;98879.81;;;16.84;72.33
75617;BME280;64200;55.426;37.758;2023-08-24T05:40:27;98873.16;;;16.87;72.42
75617;BME280;64200;55.426;37.758;2023-08-24T05:45:27;98880.00;;;17.16;72.68
75617;BME280;64200;55.426;37.758;2023-08-24T05:50:28;98877.34;;;17.43;72.13
75617;BME280;64200;55.426;37.758;2023-08-24T05:55:28;98894.72;;;17.85;71.60
75617;BME280;64200;55.426;37.758;2023-08-24T06:00:28;98890.19;;;17.96;70.50
75617;BME280;64200;55.426;37.758;2023-08-24T06:05:30;98891.03;;;18.10;70.33
75617;BME280;64200;55.426;37.758;2023-08-24T06:10:31;98887.72;;;18.24;69.58
75617;BME280;64200;55.426;37.758;2023-08-24T06:15:32;98893.59;;;18.40;69.06
75617;BME280;64200;55.426;37.758;2023-08-24T06:20:32;98890.81;;;18.53;68.37
75617;BME280;64200;55.426;37.758;2023-08-24T06:25:33;98906.19;;;18.71;67.93
75617;BME280;64200;55.426;37.758;2023-08-24T06:30:37;98911.69;;;18.77;67.58
75617;BME280;64200;55.426;37.758;2023-08-24T06:35:40;98905.16;;;18.55;67.41
75617;BME280;64200;55.426;37.758;2023-08-24T06:40:41;98913.06;;;18.43;66.89
75617;BME280;64200;55.426;37.758;2023-08-24T06:45:43;98914.03;;;18.33;67.34
75617;BME280;64200;55.426;37.758;2023-08-24T06:50:44;98904.47;;;18.03;67.34
75617;BME280;64200;55.426;37.758;2023-08-24T06:55:45;98924.53;;;18.00;67.97
75617;BME280;64200;55.426;37.758;2023-08-24T07:00:45;98929.47;;;18.13;68.04
75617;BME280;64200;55.426;37.758;2023-08-24T07:05:46;98932.38;;;18.07;68.00
75617;BME280;64200;55.426;37.758;2023-08-24T07:10:46;98928.88;;;18.01;67.35
75617;BME280;64200;55.426;37.758;2023-08-24T07:15:47;98923.97;;;17.82;67.78
75617;BME280;64200;55.426;37.758;2023-08-24T07:20:47;98927.72;;;17.71;68.06
75617;BME280;64200;55.426;37.758;2023-08-24T07:25:48;98932.53;;;17.58;68.43
75617;BME280;64200;55.426;37.758;2023-08-24T07:30:48;98927.16;;;17.35;68.74
75617;BME280;64200;55.426;37.758;2023-08-24T07:35:49;98938.00;;;17.31;69.08
75617;BME280;64200;55.426;37.758;2023-08-24T07:40:49;98931.88;;;17.27;69.45
75617;BME280;64200;55.426;37.758;2023-08-24T07:45:50;98945.81;;;17.19;69.51
75617;BME280;64200;55.426;37.758;2023-08-24T07:50:52;98949.91;;;17.18;69.75
75617;BME280;64200;55.426;37.758;2023-08-24T07:55:54;98952.31;;;17.08;69.85
75617;BME280;64200;55.426;37.758;2023-08-24T08:00:58;98951.75;;;16.91;70.18
75617;BME280;64200;55.426;37.758;2023-08-24T08:05:59;98952.81;;;16.82;70.65
75617;BME280;64200;55.426;37.758;2023-08-24T08:11:01;98955.16;;;16.78;70.42
75617;BME280;64200;55.426;37.758;2023-08-24T08:16:06;98949.63;;;16.66;71.38
75617;BME280;64200;55.426;37.758;2023-08-24T08:21:14;98958.84;;;16.67;71.58
75617;BME280;64200;55.426;37.758;2023-08-24T08:26:15;98953.50;;;16.63;71.54
75617;BME280;64200;55.426;37.758;2023-08-24T08:31:16;98957.44;;;16.49;71.94
75617;BME280;64200;55.426;37.758;2023-08-24T08:36:16;98968.03;;;16.37;71.95
75617;BME280;64200;55.426;37.758;2023-08-24T08:41:21;98965.28;;;16.31;72.44
75617;BME280;64200;55.426;37.758;2023-08-24T08:46:22;98973.47;;;16.29;72.40
75617;BME280;64200;55.426;37.758;2023-08-24T08:51:23;98973.44;;;16.35;72.46
75617;BME280;64200;55.426;37.758;2023-08-24T08:56:24;98958.78;;;16.42;72.32
75617;BME280;64200;55.426;37.758;2023-08-24T09:01:25;98941.72;;;16.35;72.90
75617;BME280;64200;55.426;37.758;2023-08-24T09:06:26;98967.19;;;16.48;72.98
75617;BME280;64200;55.426;37.758;2023-08-24T09:11:27;98968.66;;;16.55;73.39
75617;BME280;64200;55.426;37.758;2023-08-24T09:16:31;98981.22;;;16.84;72.73
75617;BME280;64200;55.426;37.758;2023-08-24T09:21:32;98980.09;;;16.98;72.34
75617;BME280;64200;55.426;37.758;2023-08-24T09:26:37;98984.94;;;16.98;71.62
75617;BME280;64200;55.426;37.758;2023-08-24T09:31:43;98980.94;;;16.88;71.31
75617;BME280;64200;55.426;37.758;2023-08-24T09:36:46;99003.34;;;17.05;71.09
75617;BME280;64200;55.426;37.758;2023-08-24T09:41:51;98998.75;;;17.01;71.48
75617;BME280;64200;55.426;37.758;2023-08-24T09:46:51;98991.06;;;17.02;70.63
75617;BME280;64200;55.426;37.758;2023-08-24T09:51:57;98982.34;;;17.06;70.68
75617;BME280;64200;55.426;37.758;2023-08-24T09:56:59;98998.06;;;17.20;70.14
75617;BME280;64200;55.426;37.758;2023-08-24T10:02:01;98993.59;;;17.30;69.85
75617;BME280;64200;55.426;37.758;2023-08-24T10:07:08;98998.41;;;17.35;69.95
75617;BME280;64200;55.426;37.758;2023-08-24T10:12:12;99004.69;;;17.47;69.74
75617;BME280;64200;55.426;37.758;2023-08-24T10:17:15;99005.09;;;17.76;69.74
75617;BME280;64200;55.426;37.758;2023-08-24T10:22:16;98993.47;;;17.85;68.50
75617;BME280;64200;55.426;37.758;2023-08-24T10:27:18;99006.75;;;18.10;67.79
75617;BME280;64200;55.426;37.758;2023-08-24T10:32:22;99002.28;;;17.76;67.24
75617;BME280;64200;55.426;37.758;2023-08-24T10:37:27;99009.22;;;17.75;68.17
75617;BME280;64200;55.426;37.758;2023-08-24T10:42:27;99015.16;;;18.15;66.99
75617;BME280;64200;55.426;37.758;2023-08-24T10:47:28;99023.50;;;17.83;66.72
75617;BME280;64200;55.426;37.758;2023-08-24T10:52:33;99010.72;;;17.57;67.38
75617;BME280;64200;55.426;37.758;2023-08-24T10:57:38;99021.47;;;17.59;67.13
75617;BME280;64200;55.426;37.758;2023-08-24T11:07:55;99021.47;;;17.59;67.69
75617;BME280;64200;55.426;37.758;2023-08-24T11:18:27;99027.78;;;17.46;67.36
75617;BME280;64200;55.426;37.758;2023-08-24T11:23:28;99029.41;;;17.35;67.33
75617;BME280;64200;55.426;37.758;2023-08-24T11:28:30;99014.44;;;17.21;68.24
75617;BME280;64200;55.426;37.758;2023-08-24T11:33:35;99017.66;;;17.31;68.53
75617;BME280;64200;55.426;37.758;2023-08-24T11:38:40;99020.38;;;17.43;68.60
75617;BME280;64200;55.426;37.758;2023-08-24T11:43:44;99005.94;;;17.71;68.22
75617;BME280;64200;55.426;37.758;2023-08-24T11:48:45;99006.00;;;17.90;67.34
75617;BME280;64200;55.426;37.758;2023-08-24T11:53:46;99012.03;;;18.51;66.58
75617;BME280;64200;55.426;37.758;2023-08-24T11:58:49;99019.59;;;19.08;65.47
75617;BME280;64200;55.426;37.758;2023-08-24T12:03:51;99015.28;;;19.34;64.67
75617;BME280;64200;55.426;37.758;2023-08-24T12:08:52;99019.84;;;19.23;64.00
75617;BME280;64200;55.426;37.758;2023-08-24T12:13:54;99027.88;;;19.19;63.43
75617;BME280;64200;55.426;37.758;2023-08-24T12:18:56;99026.34;;;19.05;63.37
75617;BME280;64200;55.426;37.758;2023-08-24T12:24:02;99026.56;;;18.74;63.09
75617;BME280;64200;55.426;37.758;2023-08-24T12:29:08;99025.63;;;18.53;63.47
75617;BME280;64200;55.426;37.758;2023-08-24T12:34:08;99019.22;;;18.52;63.97
75617;BME280;64200;55.426;37.758;2023-08-24T12:39:11;99023.13;;;18.30;63.59
75617;BME280;64200;55.426;37.758;2023-08-24T12:44:15;99013.59;;;18.14;64.13
75617;BME280;64200;55.426;37.758;2023-08-24T12:49:17;99030.84;;;18.30;64.86
75617;BME280;64200;55.426;37.758;2023-08-24T12:54:17;99023.53;;;18.53;64.81
75617;BME280;64200;55.426;37.758;2023-08-24T12:59:18;99028.13;;;18.56;64.24
75617;BME280;64200;55.426;37.758;2023-08-24T13:04:18;99026.63;;;18.88;64.42
75617;BME280;64200;55.426;37.758;2023-08-24T13:09:19;99039.81;;;18.99;63.24
75617;BME280;64200;55.426;37.758;2023-08-24T13:14:19;99039.19;;;19.06;63.29
75617;BME280;64200;55.426;37.758;2023-08-24T13:19:21;99039.94;;;19.06;63.51
75617;BME280;64200;55.426;37.758;2023-08-24T13:24:21;99033.16;;;18.96;62.41
75617;BME280;64200;55.426;37.758;2023-08-24T13:29:22;99022.22;;;18.73;62.60
75617;BME280;64200;55.426;37.758;2023-08-24T13:34:22;99031.22;;;18.72;62.74
75617;BME280;64200;55.426;37.758;2023-08-24T13:39:23;99033.34;;;18.85;62.70
75617;BME280;64200;55.426;37.758;2023-08-24T13:44:23;99030.44;;;18.90;62.08
75617;BME280;64200;55.426;37.758;2023-08-24T13:49:24;99033.72;;;18.94;60.80
75617;BME280;64200;55.426;37.758;2023-08-24T13:54:24;99039.06;;;19.11;60.62
75617;BME280;64200;55.426;37.758;2023-08-24T13:59:26;99035.19;;;19.41;60.51
75617;BME280;64200;55.426;37.758;2023-08-24T14:04:27;99035.63;;;19.86;59.76
75617;BME280;64200;55.426;37.758;2023-08-24T14:09:28;99034.59;;;20.10;58.70
75617;BME280;64200;55.426;37.758;2023-08-24T14:14:28;99045.31;;;19.90;58.04
75617;BME280;64200;55.426;37.758;2023-08-24T14:19:29;99039.56;;;19.56;58.08
75617;BME280;64200;55.426;37.758;2023-08-24T14:24:29;99035.41;;;19.43;58.16
75617;BME280;64200;55.426;37.758;2023-08-24T14:29:30;99042.25;;;19.48;58.13
75617;BME280;64200;55.426;37.758;2023-08-24T14:34:30;99041.69;;;19.63;57.78
75617;BME280;64200;55.426;37.758;2023-08-24T14:39:31;99036.72;;;19.56;57.51
75617;BME280;64200;55.426;37.758;2023-08-24T14:44:31;99041.59;;;19.42;57.42
75617;BME280;64200;55.426;37.758;2023-08-24T14:49:32;99035.72;;;19.13;57.31
75617;BME280;64200;55.426;37.758;2023-08-24T14:54:32;99036.00;;;18.96;57.42
75617;BME280;64200;55.426;37.758;2023-08-24T14:59:33;99035.47;;;18.78;57.71
75617;BME280;64200;55.426;37.758;2023-08-24T15:04:34;99042.75;;;18.74;57.69
75617;BME280;64200;55.426;37.758;2023-08-24T15:09:34;99019.50;;;18.49;58.17
75617;BME280;64200;55.426;37.758;2023-08-24T15:14:35;99034.31;;;18.55;58.52
75617;BME280;64200;55.426;37.758;2023-08-24T15:19:35;99036.47;;;18.49;58.62
75617;BME280;64200;55.426;37.758;2023-08-24T15:24:36;99039.38;;;18.43;58.84
75617;BME280;64200;55.426;37.758;2023-08-24T15:29:36;99033.56;;;18.35;58.89
75617;BME280;64200;55.426;37.758;2023-08-24T15:34:37;99043.66;;;18.31;59.26
75617;BME280;64200;55.426;37.758;2023-08-24T15:39:39;99042.75;;;18.22;58.89
75617;BME280;64200;55.426;37.758;2023-08-24T15:44:40;99029.25;;;18.15;59.47
75617;BME280;64200;55.426;37.758;2023-08-24T15:49:40;99039.75;;;18.15;59.22
75617;BME280;64200;55.426;37.758;2023-08-24T15:54:42;99038.00;;;18.12;59.39
75617;BME280;64200;55.426;37.758;2023-08-24T15:59:42;99041.53;;;17.99;59.42
75617;BME280;64200;55.426;37.758;2023-08-24T16:04:43;99041.41;;;17.85;59.10
75617;BME280;64200;55.426;37.758;2023-08-24T16:09:43;99047.03;;;17.66;59.48
75617;BME280;64200;55.426;37.758;2023-08-24T16:14:44;99049.06;;;17.66;60.17
75617;BME280;64200;55.426;37.758;2023-08-24T16:19:45;99049.06;;;17.66;60.12
75617;BME280;64200;55.426;37.758;2023-08-24T16:24:45;99045.56;;;17.60;59.97
75617;BME280;64200;55.426;37.758;2023-08-24T16:29:46;99056.63;;;17.58;60.91
75617;BME280;64200;55.426;37.758;2023-08-24T16:34:46;99051.78;;;17.52;61.05
75617;BME280;64200;55.426;37.758;2023-08-24T16:39:47;99052.91;;;17.44;61.21
75617;BME280;64200;55.426;37.758;2023-08-24T16:44:47;99059.84;;;17.43;62.22
75617;BME280;64200;55.426;37.758;2023-08-24T16:49:48;99060.59;;;17.43;62.63
75617;BME280;64200;55.426;37.758;2023-08-24T16:54:48;99063.31;;;17.30;62.89
75617;BME280;64200;55.426;37.758;2023-08-24T16:59:50;99065.91;;;17.28;63.54
75617;BME280;64200;55.426;37.758;2023-08-24T17:04:50;99069.09;;;17.13;63.77
75617;BME280;64200;55.426;37.758;2023-08-24T17:09:51;99083.81;;;17.00;64.03
75617;BME280;64200;55.426;37.758;2023-08-24T17:14:51;99081.06;;;16.89;64.03
75617;BME280;64200;55.426;37.758;2023-08-24T17:19:52;99080.56;;;16.84;64.54
75617;BME280;64200;55.426;37.758;2023-08-24T17:24:52;99085.22;;;16.82;64.73
75617;BME280;64200;55.426;37.758;2023-08-24T17:29:53;99080.34;;;16.82;64.91
75617;BME280;64200;55.426;37.758;2023-08-24T17:34:53;99085.22;;;16.82;65.09
75617;BME280;64200;55.426;37.758;2023-08-24T17:39:54;99082.09;;;16.85;64.88
75617;BME280;64200;55.426;37.758;2023-08-24T17:44:54;99087.72;;;16.85;64.92
75617;BME280;64200;55.426;37.758;2023-08-24T17:49:55;99095.44;;;16.85;64.96
75617;BME280;64200;55.426;37.758;2023-08-24T17:54:56;99093.66;;;16.82;64.79
75617;BME280;64200;55.426;37.758;2023-08-24T17:59:56;99095.94;;;16.83;65.19
75617;BME280;64200;55.426;37.758;2023-08-24T18:04:57;99092.91;;;16.76;65.06
75617;BME280;64200;55.426;37.758;2023-08-24T18:09:58;99109.31;;;16.77;65.15
75617;BME280;64200;55.426;37.758;2023-08-24T18:14:58;99109.31;;;16.77;65.20
75617;BME280;64200;55.426;37.758;2023-08-24T18:19:59;99102.91;;;16.77;65.09
75617;BME280;64200;55.426;37.758;2023-08-24T18:24:59;99099.59;;;16.73;65.33
75617;BME280;64200;55.426;37.758;2023-08-24T18:30:00;99098.09;;;16.72;65.53
75617;BME280;64200;55.426;37.758;2023-08-24T18:35:00;99093.25;;;16.66;65.50
75617;BME280;64200;55.426;37.758;2023-08-24T18:40:01;99095.81;;;16.64;65.92
75617;BME280;64200;55.426;37.758;2023-08-24T18:45:06;99097.59;;;16.67;66.03
75617;BME280;64200;55.426;37.758;2023-08-24T18:50:07;99093.53;;;16.63;66.44
75617;BME280;64200;55.426;37.758;2023-08-24T18:55:08;99078.25;;;16.53;66.31
75617;BME280;64200;55.426;37.758;2023-08-24T19:00:09;99078.78;;;16.45;67.02
75617;BME280;64200;55.426;37.758;2023-08-24T19:05:09;99100.28;;;16.48;67.06
75617;BME280;64200;55.426;37.758;2023-08-24T19:10:10;99094.44;;;16.41;67.47
75617;BME280;64200;55.426;37.758;2023-08-24T19:15:10;99097.50;;;16.37;67.72
75617;BME280;64200;55.426;37.758;2023-08-24T19:20:11;99105.72;;;16.35;68.04
75617;BME280;64200;55.426;37.758;2023-08-24T19:25:12;99115.44;;;16.34;68.23
75617;BME280;64200;55.426;37.758;2023-08-24T19:30:13;99102.69;;;16.27;68.52
75617;BME280;64200;55.426;37.758;2023-08-24T19:35:14;99120.84;;;16.32;68.80
75617;BME280;64200;55.426;37.758;2023-08-24T19:40:15;99109.38;;;16.24;69.10
75617;BME280;64200;55.426;37.758;2023-08-24T19:45:16;99113.16;;;16.27;69.28
75617;BME280;64200;55.426;37.758;2023-08-24T19:50:16;99117.53;;;16.22;69.06
75617;BME280;64200;55.426;37.758;2023-08-24T19:55:17;99110.69;;;16.12;69.10
75617;BME280;64200;55.426;37.758;2023-08-24T20:00:19;99116.31;;;16.12;69.25
75617;BME280;64200;55.426;37.758;2023-08-24T20:05:22;99113.28;;;16.04;69.44
75617;BME280;64200;55.426;37.758;2023-08-24T20:10:23;99105.88;;;15.95;69.57
75617;BME280;64200;55.426;37.758;2023-08-24T20:15:24;99120.69;;;16.02;69.53
75617;BME280;64200;55.426;37.758;2023-08-24T20:20:25;99116.91;;;15.93;69.67
75617;BME280;64200;55.426;37.758;2023-08-24T20:25:25;99127.66;;;15.89;69.72
75617;BME280;64200;55.426;37.758;2023-08-24T20:30:26;99127.16;;;15.85;69.89
75617;BME280;64200;55.426;37.758;2023-08-24T20:35:26;99127.94;;;15.80;70.31
75617;BME280;64200;55.426;37.758;2023-08-24T20:40:27;99121.78;;;15.76;69.82
75617;BME280;64200;55.426;37.758;2023-08-24T20:45:29;99136.34;;;15.74;69.61
75617;BME280;64200;55.426;37.758;2023-08-24T20:50:30;99131.53;;;15.69;69.48
75617;BME280;64200;55.426;37.758;2023-08-24T20:55:32;99137.63;;;15.68;69.35
75617;BME280;64200;55.426;37.758;2023-08-24T21:00:33;99127.19;;;15.62;68.93
75617;BME280;64200;55.426;37.758;2023-08-24T21:05:34;99132.81;;;15.57;68.77
75617;BME280;64200;55.426;37.758;2023-08-24T21:10:34;99126.72;;;15.41;69.05
75617;BME280;64200;55.426;37.758;2023-08-24T21:15:35;99133.34;;;15.38;69.11
75617;BME280;64200;55.426;37.758;2023-08-24T21:20:35;99145.09;;;15.31;69.11
75617;BME280;64200;55.426;37.758;2023-08-24T21:25:37;99142.81;;;15.24;69.60
75617;BME280;64200;55.426;37.758;2023-08-24T21:30:37;99145.09;;;15.25;69.78
75617;BME280;64200;55.426;37.758;2023-08-24T21:35:38;99138.47;;;15.23;69.97
75617;BME280;64200;55.426;37.758;2023-08-24T21:40:39;99138.72;;;15.14;69.82
75617;BME280;64200;55.426;37.758;2023-08-24T21:45:41;99136.69;;;15.03;70.33
75617;BME280;64200;55.426;37.758;2023-08-24T21:50:41;99136.16;;;14.99;70.15
75617;BME280;64200;55.426;37.758;2023-08-24T21:55:42;99150.22;;;14.99;70.59
75617;BME280;64200;55.426;37.758;2023-08-24T22:00:43;99155.53;;;14.97;70.70
75617;BME280;64200;55.426;37.758;2023-08-24T22:05:43;99156.06;;;14.89;70.71
75617;BME280;64200;55.426;37.758;2023-08-24T22:10:44;99159.13;;;14.86;70.80
75617;BME280;64200;55.426;37.758;2023-08-24T22:15:44;99152.22;;;14.75;70.90
75617;BME280;64200;55.426;37.758;2023-08-24T22:20:45;99159.09;;;14.69;71.00
75617;BME280;64200;55.426;37.758;2023-08-24T22:25:46;99165.72;;;14.66;71.09
75617;BME280;64200;55.426;37.758;2023-08-24T22:30:47;99167.72;;;14.54;71.04
75617;BME280;64200;55.426;37.758;2023-08-24T22:35:48;99169.97;;;14.50;71.15
75617;BME280;64200;55.426;37.758;2023-08-24T22:40:51;99159.75;;;14.41;70.81
75617;BME280;64200;55.426;37.758;2023-08-24T22:45:52;99169.91;;;14.33;71.13
75617;BME280;64200;55.426;37.758;2023-08-24T22:50:53;99170.41;;;14.31;70.96
75617;BME280;64200;55.426;37.758;2023-08-24T22:55:53;99171.69;;;14.30;71.18
75617;BME280;64200;55.426;37.758;2023-08-24T23:00:54;99171.69;;;14.25;71.09
75617;BME280;64200;55.426;37.758;2023-08-24T23:05:55;99178.28;;;14.21;71.33
75617;BME280;64200;55.426;37.758;2023-08-24T23:10:55;99179.53;;;14.15;71.08
75617;BME280;64200;55.426;37.758;2023-08-24T23:15:56;99179.25;;;14.07;71.04
75617;BME280;64200;55.426;37.758;2023-08-24T23:20:56;99174.88;;;14.06;71.24
75617;BME280;64200;55.426;37.758;2023-08-24T23:25:57;99184.09;;;14.07;71.09
75617;BME280;64200;55.426;37.758;2023-08-24T23:31:00;99177.44;;;14.04;70.90
75617;BME280;64200;55.426;37.758;2023-08-24T23:36:00;99176.91;;;14.00;71.08
75617;BME280;64200;55.426;37.758;2023-08-24T23:41:01;99177.66;;;13.95;71.00
75617;BME280;64200;55.426;37.758;2023-08-24T23:46:02;99174.31;;;13.91;71.01
75617;BME280;64200;55.426;37.758;2023-08-24T23:51:03;99181.19;;;13.90;71.12
75617;BME280;64200;55.426;37.758;2023-08-24T23:56:03;99173.22;;;13.82;71.11
